Time;durP1;ratioP1;P1;durP2;ratioP2;P2;SDS_P1;SDS_P2;PMS_P1;PMS_P2;Temp;Humidity;BMP_temperature;BMP_pressure;BME280_temperature;BME280_humidity;BME280_pressure;Samples;Min_cycle;Max_cycle;Signal;HPM_P1;HPM_P2
2022/09/02 00:01:24;;;;;;;4.22;1.73;;;;;;;17.23;50.83;101657.16;5050754;28;20044;-35
2022/09/02 00:03:50;;;;;;;6.90;1.70;;;;;;;17.20;50.77;101648.56;5050749;28;20036;-36
2022/09/02 00:06:16;;;;;;;8.75;1.77;;;;;;;17.18;50.99;101656.94;5050368;28;20025;-35
2022/09/02 00:08:42;;;;;;;10.80;2.22;;;;;;;17.11;51.06;101651.47;5031746;28;20025;-35
2022/09/02 00:11:08;;;;;;;7.82;2.00;;;;;;;17.10;51.30;101646.25;5050995;28;20051;-35
2022/09/02 00:13:36;;;;;;;3.35;1.83;;;;;;;17.05;51.27;101654.16;5033342;28;20033;-36
2022/09/02 00:16:02;;;;;;;;;;;;;;;17.01;51.46;101651.03;5046544;28;20021;-35
2022/09/02 00:18:27;;;;;;;4.30;1.73;;;;;;;16.98;51.48;101653.31;5033374;28;19915;-37
2022/09/02 00:20:53;;;;;;;4.50;2.15;;;;;;;16.97;51.46;101646.19;5051071;28;20392;-36
2022/09/02 00:23:18;;;;;;;2.88;1.70;;;;;;;16.95;51.37;101645.56;5049968;28;20029;-35
2022/09/02 00:25:44;;;;;;;9.05;1.80;;;;;;;16.92;51.59;101646.81;5048259;28;20464;-36
2022/09/02 00:28:11;;;;;;;4.38;1.50;;;;;;;16.89;51.68;101648.06;5032900;28;20026;-35
2022/09/02 00:30:37;;;;;;;5.67;1.90;;;;;;;16.89;51.51;101647.22;5033763;28;20037;-36
2022/09/02 00:33:03;;;;;;;4.72;1.88;;;;;;;16.84;51.42;101634.22;5033826;28;20286;-35
2022/09/02 00:35:29;;;;;;;6.00;1.85;;;;;;;16.81;51.79;101634.66;5051253;28;20051;-36
2022/09/02 00:37:55;;;;;;;2.58;1.50;;;;;;;16.78;51.81;101635.06;5048776;28;20024;-36
2022/09/02 00:40:22;;;;;;;3.63;1.60;;;;;;;16.80;51.89;101635.69;5049995;28;20060;-35
2022/09/02 00:42:48;;;;;;;4.53;1.73;;;;;;;16.79;51.92;101630.44;5014395;28;20013;-35
2022/09/02 00:45:13;;;;;;;7.32;1.85;;;;;;;16.78;52.34;101626.91;5042071;28;20366;-36
2022/09/02 00:47:39;;;;;;;9.27;1.63;;;;;;;16.74;52.35;101628.31;5052687;28;20108;-35
2022/09/02 00:50:08;;;;;;;1.75;1.42;;;;;;;16.71;52.26;101623.28;5048280;28;20037;-36
2022/09/02 00:52:37;;;;;;;5.45;1.85;;;;;;;16.69;52.39;101619.91;5046637;28;20029;-35
2022/09/02 00:55:31;;;;;;;3.63;1.67;;;;;;;16.65;52.51;101619.50;5052096;28;20044;-36
2022/09/02 00:58:00;;;;;;;6.07;1.50;;;;;;;16.63;52.32;101616.13;5031347;28;20037;-36
2022/09/02 01:00:30;;;;;;;5.30;1.40;;;;;;;16.60;52.61;101616.56;5034338;28;20037;-35
2022/09/02 01:02:58;;;;;;;5.57;1.77;;;;;;;16.59;52.36;101609.44;5050231;28;20028;-35
2022/09/02 01:05:24;;;;;;;;;;;;;;;16.60;52.29;101613.00;5033846;28;20381;-38
2022/09/02 01:07:51;;;;;;;2.33;1.50;;;;;;;16.60;52.41;101613.00;5051814;28;19919;-36
2022/09/02 01:10:21;;;;;;;6.17;1.87;;;;;;;16.55;52.48;101612.78;5033948;28;20524;-40
2022/09/02 01:12:46;;;;;;;3.75;1.70;;;;;;;16.55;52.59;101601.91;5039700;28;20048;-36
2022/09/02 01:15:12;;;;;;;4.15;1.70;;;;;;;16.53;52.64;101609.41;5033263;28;20353;-35
2022/09/02 01:17:42;;;;;;;6.13;1.75;;;;;;;16.51;52.88;101606.06;5051296;28;20149;-35
2022/09/02 01:20:12;;;;;;;3.08;1.65;;;;;;;16.49;53.04;101605.44;5016959;28;20463;-37
2022/09/02 01:22:40;;;;;;;3.03;1.67;;;;;;;16.49;53.14;101602.72;5036106;28;20463;-37
2022/09/02 01:25:12;;;;;;;4.00;1.48;;;;;;;16.44;53.08;101604.16;5051459;28;20603;-35
2022/09/02 01:27:37;;;;;;;7.10;1.88;;;;;;;16.41;53.19;101598.28;5050741;28;20025;-36
2022/09/02 01:30:05;;;;;;;2.13;1.63;;;;;;;16.36;53.58;101601.63;5051123;28;20047;-35
2022/09/02 01:32:31;;;;;;;5.57;1.90;;;;;;;16.36;53.46;101601.63;5032669;28;20427;-35
2022/09/02 01:34:58;;;;;;;2.25;1.83;;;;;;;16.32;53.72;101602.22;5029631;28;20048;-35
2022/09/02 01:37:24;;;;;;;10.95;1.67;;;;;;;16.29;53.67;101598.00;5047911;28;20593;-37
2022/09/02 01:39:51;;;;;;;6.88;1.80;;;;;;;16.26;53.70;101597.59;5050499;28;20040;-36
2022/09/02 01:42:17;;;;;;;10.65;1.85;;;;;;;16.24;53.47;101595.94;5050951;28;20024;-37
2022/09/02 01:44:45;;;;;;;6.35;1.88;;;;;;;16.17;53.59;101592.31;5032793;28;20034;-37
2022/09/02 01:47:16;;;;;;;7.97;1.77;;;;;;;16.17;53.98;101596.94;5049873;28;20083;-36
2022/09/02 01:49:41;;;;;;;4.10;1.80;;;;;;;16.17;53.82;101583.34;5049261;28;20040;-35
2022/09/02 01:52:08;;;;;;;5.13;1.80;;;;;;;16.13;53.90;101591.03;5049397;28;20079;-36
2022/09/02 01:54:33;;;;;;;4.10;1.65;;;;;;;16.11;54.24;101590.41;5049781;28;20035;-36
2022/09/02 01:56:59;;;;;;;3.80;1.88;;;;;;;16.11;54.27;101584.13;5031412;28;20029;-36
2022/09/02 01:59:25;;;;;;;4.70;1.40;;;;;;;16.05;54.38;101585.78;5047337;28;20041;-36
2022/09/02 02:01:50;;;;;;;7.28;1.60;;;;;;;16.04;54.37;101577.84;5050065;28;20091;-37
2022/09/02 02:04:16;;;;;;;4.70;1.65;;;;;;;16.02;54.52;101581.56;5048696;28;20502;-35
2022/09/02 02:06:46;;;;;;;4.97;1.50;;;;;;;16.04;54.67;101577.84;5080084;23;20165;-39
2022/09/02 02:09:11;;;;;;;4.60;1.55;;;;;;;16.03;54.09;101576.97;5052948;28;20035;-38
2022/09/02 02:11:37;;;;;;;4.93;1.67;;;;;;;16.00;54.47;101572.78;5058916;28;20056;-38
2022/09/02 02:14:03;;;;;;;7.30;1.80;;;;;;;15.99;54.43;101573.00;5061698;28;20044;-36
2022/09/02 02:16:29;;;;;;;3.38;1.88;;;;;;;15.93;54.18;101577.38;5063394;28;20044;-41
2022/09/02 02:18:54;;;;;;;4.32;1.60;;;;;;;15.92;54.44;101575.66;5066593;28;20044;-40
2022/09/02 02:21:20;;;;;;;9.48;1.80;;;;;;;15.92;54.21;101570.25;5066855;28;20032;-39
2022/09/02 02:23:45;;;;;;;3.85;1.77;;;;;;;15.87;54.39;101566.44;5049734;28;20033;-40
2022/09/02 02:26:11;;;;;;;4.05;1.95;;;;;;;15.88;54.27;101568.16;5050222;28;20033;-38
2022/09/02 02:28:36;;;;;;;12.98;1.85;;;;;;;15.86;54.50;101579.19;5066075;28;20081;-38
2022/09/02 02:31:02;;;;;;;3.13;1.80;;;;;;;15.84;54.32;101567.69;5065871;28;20096;-38
2022/09/02 02:33:28;;;;;;;4.45;2.10;;;;;;;15.84;54.44;101554.13;5066667;28;20044;-38
2022/09/02 02:35:54;;;;;;;6.82;1.98;;;;;;;15.81;54.75;101562.66;5056939;28;20045;-39
2022/09/02 02:38:20;;;;;;;3.53;1.90;;;;;;;15.75;54.72;101564.28;5060185;28;20065;-39
2022/09/02 02:40:46;;;;;;;2.03;1.77;;;;;;;15.75;54.69;101556.16;5064163;28;20120;-39
2022/09/02 02:43:11;;;;;;;8.75;2.42;;;;;;;15.74;54.69;101561.78;5066046;28;20029;-39
2022/09/02 02:45:36;;;;;;;6.78;2.00;;;;;;;15.70;54.95;101560.50;5063471;28;20044;-39
2022/09/02 02:48:02;;;;;;;3.75;1.80;;;;;;;15.67;55.18;101558.16;5065770;28;20036;-38
2022/09/02 02:50:27;;;;;;;3.85;1.85;;;;;;;15.63;55.31;101571.25;5063938;28;20043;-41
2022/09/02 02:52:53;;;;;;;4.45;1.80;;;;;;;15.57;55.43;101559.34;5066069;28;20047;-39
2022/09/02 02:55:19;;;;;;;9.57;2.00;;;;;;;15.52;55.78;101561.78;5067082;28;20087;-38
2022/09/02 02:57:45;;;;;;;8.40;2.00;;;;;;;15.50;55.79;101555.72;5066606;28;20114;-39
2022/09/02 03:00:21;;;;;;;5.85;2.00;;;;;;;15.49;55.93;101551.34;5067225;28;20543;-39
2022/09/02 03:02:48;;;;;;;7.00;2.03;;;;;;;15.48;55.98;101557.81;5062342;28;20028;-39
2022/09/02 03:05:14;;;;;;;5.05;2.10;;;;;;;15.43;56.22;101549.44;5066030;28;20021;-39
2022/09/02 03:07:39;;;;;;;4.68;2.10;;;;;;;15.37;56.30;101545.59;5057503;28;20069;-38
2022/09/02 03:10:07;;;;;;;7.75;1.70;;;;;;;15.31;56.45;101545.56;5045891;28;20064;-39
2022/09/02 03:12:33;;;;;;;6.68;2.10;;;;;;;15.25;56.75;101549.06;5037224;28;20041;-39
2022/09/02 03:14:59;;;;;;;11.23;2.17;;;;;;;15.25;56.57;101541.78;5044104;28;20029;-38
2022/09/02 03:17:25;;;;;;;4.78;1.60;;;;;;;15.21;56.81;101550.47;5045734;28;20032;-37
2022/09/02 03:19:52;;;;;;;4.15;2.00;;;;;;;15.15;56.96;101535.84;5045296;28;20039;-38
2022/09/02 03:22:17;;;;;;;7.40;1.90;;;;;;;15.14;57.09;101545.84;5046660;28;20044;-38
2022/09/02 03:24:42;;;;;;;5.13;1.70;;;;;;;15.06;57.32;101551.41;5046768;28;20077;-39
2022/09/02 03:27:08;;;;;;;5.90;1.80;;;;;;;15.10;57.10;101547.25;5047039;28;20032;-38
2022/09/02 03:29:33;;;;;;;7.53;2.00;;;;;;;15.09;57.13;101545.59;5044680;28;20052;-40
2022/09/02 03:31:59;;;;;;;4.30;1.90;;;;;;;15.04;57.24;101544.50;5044447;28;20025;-39
2022/09/02 03:34:25;;;;;;;2.33;1.70;;;;;;;15.03;57.46;101548.22;5037980;28;20030;-39
2022/09/02 03:36:50;;;;;;;9.40;2.05;;;;;;;14.96;57.71;101537.34;5037629;28;20037;-38
2022/09/02 03:39:16;;;;;;;2.58;1.80;;;;;;;14.93;57.82;101541.28;5046068;28;20041;-39
2022/09/02 03:41:41;;;;;;;4.97;2.30;;;;;;;14.91;57.63;101543.31;5043472;28;20060;-38
2022/09/02 03:44:07;;;;;;;4.70;2.45;;;;;;;14.94;57.74;101536.69;5048267;28;21179;-39
2022/09/02 03:46:34;;;;;;;10.85;2.17;;;;;;;14.91;57.75;101539.78;5044360;28;20048;-40
2022/09/02 03:48:59;;;;;;;4.30;1.95;;;;;;;14.87;58.12;101533.06;5046115;28;20056;-38
2022/09/02 03:51:25;;;;;;;6.80;1.88;;;;;;;14.90;57.55;101538.09;5047922;28;20029;-40
2022/09/02 03:53:51;;;;;;;4.20;1.90;;;;;;;14.81;57.96;101528.44;5046821;28;20038;-38
2022/09/02 03:56:18;;;;;;;4.55;2.03;;;;;;;14.80;58.08;101522.16;5039262;28;20092;-37
2022/09/02 03:58:45;;;;;;;3.67;1.80;;;;;;;14.80;57.94;101522.16;5043290;28;20048;-38
2022/09/02 04:01:18;;;;;;;3.35;2.20;;;;;;;14.80;58.21;101527.59;5035936;28;20041;-37
2022/09/02 04:03:44;;;;;;;7.18;2.00;;;;;;;14.80;58.31;101524.88;5045634;28;20104;-39
2022/09/02 04:06:14;;;;;;;3.13;2.17;;;;;;;14.80;58.04;101524.06;5046659;28;20033;-39
2022/09/02 04:08:40;;;;;;;3.65;1.85;;;;;;;14.79;58.11;101523.19;5045359;28;20079;-37
2022/09/02 04:11:07;;;;;;;6.28;1.70;;;;;;;14.80;58.17;101515.91;5045184;28;20515;-40
2022/09/02 04:13:33;;;;;;;7.20;2.08;;;;;;;14.83;58.25;101519.06;5047696;28;20478;-39
2022/09/02 04:15:58;;;;;;;9.65;2.05;;;;;;;14.81;58.08;101513.00;5037578;28;20064;-38
2022/09/02 04:18:24;;;;;;;9.18;2.10;;;;;;;14.83;57.97;101510.09;5044792;28;20152;-39
2022/09/02 04:20:49;;;;;;;1.90;1.70;;;;;;;14.80;57.93;101508.63;5042991;28;20126;-39
2022/09/02 04:23:14;;;;;;;5.28;2.28;;;;;;;14.76;58.05;101509.19;5034709;28;20029;-38
2022/09/02 04:25:41;;;;;;;5.40;1.90;;;;;;;14.74;58.54;101511.25;5047023;28;20045;-38
2022/09/02 04:28:07;;;;;;;11.27;2.17;;;;;;;14.71;58.60;101497.06;5047804;28;20030;-39
2022/09/02 04:30:32;;;;;;;4.45;1.98;;;;;;;14.70;58.60;101505.38;5047195;28;20026;-38
2022/09/02 04:32:58;;;;;;;4.18;2.03;;;;;;;14.74;58.62;101501.25;5043725;28;20025;-38
2022/09/02 04:35:23;;;;;;;6.45;2.25;;;;;;;14.72;58.52;101497.91;5046968;28;20562;-39
2022/09/02 04:37:49;;;;;;;6.95;2.63;;;;;;;14.71;58.74;101498.94;5036795;28;20381;-40
2022/09/02 04:40:14;;;;;;;7.57;2.22;;;;;;;14.65;58.85;101502.41;5034197;28;20045;-39
2022/09/02 04:42:40;;;;;;;3.80;2.13;;;;;;;14.60;59.14;101505.69;5035148;28;20029;-38
2022/09/02 04:45:06;;;;;;;3.33;2.08;;;;;;;14.66;58.89;101495.97;5039241;28;20038;-39
2022/09/02 04:47:31;;;;;;;5.20;2.25;;;;;;;14.65;59.08;101497.00;5045094;28;20034;-38
2022/09/02 04:49:57;;;;;;;4.05;2.67;;;;;;;14.68;59.09;101497.44;5043739;28;20112;-38
2022/09/02 04:52:23;;;;;;;6.65;2.28;;;;;;;14.63;59.25;101499.88;5045787;28;20085;-37
2022/09/02 04:54:49;;;;;;;9.40;2.50;;;;;;;14.63;59.25;101497.19;5040850;28;20464;-39
2022/09/02 04:57:14;;;;;;;5.72;2.60;;;;;;;14.59;59.39;101492.38;5047212;28;20037;-38
2022/09/02 04:59:40;;;;;;;2.90;1.98;;;;;;;14.57;59.41;101489.84;5046002;28;20025;-37
2022/09/02 05:02:05;;;;;;;4.22;2.10;;;;;;;14.58;59.40;101494.22;5043618;28;20048;-38
2022/09/02 05:04:32;;;;;;;8.02;2.10;;;;;;;14.57;59.62;101489.84;5046758;28;20025;-39
2022/09/02 05:07:00;;;;;;;5.47;2.50;;;;;;;14.51;59.69;101496.00;5043465;28;20318;-37
2022/09/02 05:09:25;;;;;;;;;;;;;;;14.56;59.57;101496.28;5046754;28;20295;-38
2022/09/02 05:11:51;;;;;;;3.22;2.20;;;;;;;14.50;59.82;101499.72;5045933;28;19913;-39
2022/09/02 05:14:16;;;;;;;4.07;2.45;;;;;;;14.48;59.91;101499.06;5045801;28;20686;-38
2022/09/02 05:16:42;;;;;;;4.38;2.65;;;;;;;14.48;59.76;101501.78;5045142;28;20038;-37
2022/09/02 05:19:10;;;;;;;5.50;2.25;;;;;;;14.51;59.86;101501.41;5044227;28;20475;-37
2022/09/02 05:21:43;;;;;;;5.35;2.70;;;;;;;14.48;59.77;101496.34;5043266;28;20029;-38
2022/09/02 05:24:08;;;;;;;3.92;2.33;;;;;;;14.57;59.56;101500.66;5045670;28;20030;-38
2022/09/02 05:26:34;;;;;;;6.97;2.20;;;;;;;14.56;59.76;101499.00;5044499;28;20412;-36
2022/09/02 05:29:01;;;;;;;3.58;2.22;;;;;;;14.60;59.61;101503.00;5041112;28;20068;-39
2022/09/02 05:31:27;;;;;;;3.92;2.28;;;;;;;14.69;59.38;101504.56;5046201;28;20115;-41
2022/09/02 05:33:53;;;;;;;4.75;2.60;;;;;;;14.88;58.81;101499.53;5046244;28;20033;-39
2022/09/02 05:36:20;;;;;;;5.40;3.00;;;;;;;15.10;58.15;101512.00;5046590;28;20062;-39
2022/09/02 05:38:45;;;;;;;9.57;2.60;;;;;;;15.40;57.25;101509.09;5045334;28;20022;-39
2022/09/02 05:41:15;;;;;;;7.78;3.22;;;;;;;15.61;56.65;101499.25;5044332;28;20032;-38
2022/09/02 05:43:43;;;;;;;5.00;2.88;;;;;;;15.84;56.01;101499.81;5044377;28;20740;-38
2022/09/02 05:46:09;;;;;;;;;;;;;;;15.95;55.63;101498.41;5045535;28;20023;-40
2022/09/02 05:51:20;;;;;;;6.00;3.00;;;;;;;16.00;54.98;101498.66;5043147;28;20117;-37
2022/09/02 05:53:45;;;;;;;7.63;2.80;;;;;;;16.05;55.02;101500.78;5043769;28;20076;-37
2022/09/02 05:56:11;;;;;;;8.68;3.80;;;;;;;15.96;55.22;101495.50;5044854;28;20028;-37
2022/09/02 05:58:36;;;;;;;10.35;3.58;;;;;;;15.83;55.62;101495.44;5044826;28;20037;-38
2022/09/02 06:01:13;;;;;;;13.23;4.57;;;;;;;15.74;55.87;101502.06;5045810;28;20079;-38
2022/09/02 06:03:38;;;;;;;12.52;3.70;;;;;;;15.64;55.87;101485.25;5043986;28;20040;-38
2022/09/02 06:06:04;;;;;;;8.55;3.30;;;;;;;15.75;55.92;101499.16;5044104;28;20029;-37
2022/09/02 06:08:31;;;;;;;8.00;3.30;;;;;;;15.82;55.49;101485.59;5037866;28;20053;-39
2022/09/02 06:10:56;;;;;;;13.73;3.47;;;;;;;15.98;55.29;101490.72;5044274;28;20072;-38
2022/09/02 06:13:22;;;;;;;8.45;3.50;;;;;;;16.07;55.14;101485.13;5044292;28;20033;-38
2022/09/02 06:15:49;;;;;;;9.18;3.85;;;;;;;15.97;55.14;101491.75;5041067;28;20025;-41
2022/09/02 06:18:15;;;;;;;13.83;3.60;;;;;;;15.96;55.43;101492.78;5043034;28;20183;-39
2022/09/02 06:20:41;;;;;;;7.35;3.35;;;;;;;15.93;55.80;101493.22;5044520;28;20829;-38
2022/09/02 06:23:07;;;;;;;5.40;2.67;;;;;;;16.03;55.45;101490.09;5044017;28;20029;-38
2022/09/02 06:25:36;;;;;;;9.02;3.10;;;;;;;15.88;55.54;101494.84;5045105;28;20032;-37
2022/09/02 06:28:02;;;;;;;5.63;3.20;;;;;;;15.93;55.67;101495.91;5044131;28;20098;-38
2022/09/02 06:30:28;;;;;;;9.70;3.38;;;;;;;15.85;55.88;101492.50;5045060;28;20503;-36
2022/09/02 06:32:54;;;;;;;10.18;3.20;;;;;;;15.80;56.23;101485.00;5044864;28;20041;-38
2022/09/02 06:35:20;;;;;;;11.63;3.20;;;;;;;15.82;56.53;101485.59;5045114;28;20033;-38
2022/09/02 06:37:46;;;;;;;12.70;3.58;;;;;;;15.82;56.31;101493.75;5045525;28;20056;-39
2022/09/02 06:40:11;;;;;;;13.45;3.20;;;;;;;15.80;56.22;101488.53;5036204;28;20109;-38
2022/09/02 06:42:37;;;;;;;9.98;3.20;;;;;;;15.73;56.66;101492.25;5043269;28;20071;-38
2022/09/02 06:45:02;;;;;;;5.82;2.90;;;;;;;15.74;56.67;101486.59;5043117;28;20088;-38
2022/09/02 06:47:28;;;;;;;8.60;2.65;;;;;;;15.72;57.01;101488.72;5037308;28;20561;-37
2022/09/02 06:49:53;;;;;;;6.50;3.28;;;;;;;16.07;56.97;101485.13;5037071;28;20122;-39
2022/09/02 06:52:20;;;;;;;10.23;3.03;;;;;;;16.86;54.30;101490.78;5040542;28;20033;-39
2022/09/02 06:54:45;;;;;;;12.18;3.28;;;;;;;17.82;51.68;101477.72;5034109;28;20022;-39
2022/09/02 06:57:11;;;;;;;11.38;2.80;;;;;;;18.72;49.30;101494.91;5037950;28;20033;-41
2022/09/02 06:59:37;;;;;;;9.43;3.00;;;;;;;19.38;47.49;101488.09;5037631;28;20045;-39
2022/09/02 07:02:02;;;;;;;6.57;2.80;;;;;;;20.04;46.55;101486.56;5036566;28;20026;-39
2022/09/02 07:07:12;;;;;;;10.55;3.03;;;;;;;21.47;43.30;101475.78;5036089;28;20040;-38
2022/09/02 07:09:38;;;;;;;13.52;3.10;;;;;;;21.78;42.94;101471.00;5037758;28;20033;-38
2022/09/02 07:12:03;;;;;;;7.03;2.95;;;;;;;22.69;40.76;101484.84;5043364;28;20093;-38
2022/09/02 07:14:29;;;;;;;9.18;3.17;;;;;;;23.51;39.50;101487.00;5042533;28;20061;-37
2022/09/02 07:16:56;;;;;;;9.23;3.25;;;;;;;23.75;38.00;101487.69;5038095;28;20025;-37
2022/09/02 07:19:22;;;;;;;10.60;3.30;;;;;;;23.49;38.36;101480.97;5036894;28;20503;-38
2022/09/02 07:21:48;;;;;;;8.80;3.22;;;;;;;23.35;39.07;101477.72;5030879;28;20022;-37
2022/09/02 07:24:15;;;;;;;4.63;3.00;;;;;;;23.91;38.57;101468.59;5035149;28;20025;-37
2022/09/02 07:26:42;;;;;;;8.88;3.33;;;;;;;23.96;37.68;101487.91;5039625;28;20428;-38
2022/09/02 07:29:08;;;;;;;15.95;3.53;;;;;;;24.39;37.32;101475.22;5033189;28;20033;-38
2022/09/02 07:31:35;;;;;;;8.75;3.55;;;;;;;24.61;36.63;101462.25;5029853;28;20033;-38
2022/09/02 07:34:01;;;;;;;9.05;3.30;;;;;;;24.30;37.08;101466.59;5030531;28;20557;-37
2022/09/02 07:36:27;;;;;;;11.93;3.33;;;;;;;23.92;37.39;101464.78;5029694;28;20056;-38
2022/09/02 07:38:53;;;;;;;12.27;3.38;;;;;;;23.99;37.69;101466.25;5034393;28;20037;-38
2022/09/02 07:41:21;;;;;;;11.85;5.68;;;;;;;23.80;38.79;101471.25;5034650;28;20029;-37
2022/09/02 07:43:47;;;;;;;9.75;3.67;;;;;;;23.95;37.51;101464.25;5033987;28;20052;-39
2022/09/02 07:46:13;;;;;;;6.40;3.42;;;;;;;23.94;37.58;101466.19;5041975;28;20026;-38
2022/09/02 07:48:38;;;;;;;17.10;4.40;;;;;;;24.41;37.41;101462.03;5019406;28;20103;-40
2022/09/02 07:51:04;;;;;;;15.65;3.28;;;;;;;25.09;35.98;101457.72;5044216;28;20029;-39
2022/09/02 07:53:31;;;;;;;16.30;3.97;;;;;;;24.95;35.26;101456.50;5040986;28;20029;-38
2022/09/02 07:55:57;;;;;;;15.40;4.28;;;;;;;24.30;36.85;101458.34;5045756;28;20018;-37
2022/09/02 07:58:22;;;;;;;10.20;3.90;;;;;;;24.05;37.62;101456.16;5042159;28;20040;-37
2022/09/02 08:00:49;;;;;;;11.23;3.95;;;;;;;24.12;37.43;101453.19;5037016;28;20030;-37
2022/09/02 08:03:15;;;;;;;23.97;4.70;;;;;;;23.38;39.02;101455.25;5037538;28;20442;-38
2022/09/02 08:05:43;;;;;;;25.30;4.55;;;;;;;23.63;38.69;101453.94;5037365;28;20325;-37
2022/09/02 08:08:09;;;;;;;21.55;4.22;;;;;;;23.98;38.50;101452.75;5039818;28;20038;-38
2022/09/02 08:10:35;;;;;;;26.90;5.47;;;;;;;24.01;38.16;101447.59;5030308;28;20103;-40
2022/09/02 08:13:00;;;;;;;25.45;4.65;;;;;;;24.21;37.47;101444.22;5041631;28;20065;-37
2022/09/02 08:15:27;;;;;;;20.33;3.97;;;;;;;24.41;37.28;101440.00;5029182;28;20018;-37
2022/09/02 08:17:55;;;;;;;15.32;4.40;;;;;;;24.50;37.52;101441.25;5043149;28;20049;-38
2022/09/02 08:20:22;;;;;;;18.98;4.18;;;;;;;24.39;38.12;101453.22;5041247;28;20094;-38
2022/09/02 08:22:47;;;;;;;11.55;4.43;;;;;;;23.81;39.34;101456.41;5038689;28;20029;-40
2022/09/02 08:25:13;;;;;;;14.30;5.03;;;;;;;23.92;39.03;101453.78;5043180;28;20627;-41
2022/09/02 08:27:38;;;;;;;11.02;4.60;;;;;;;24.14;38.34;101451.00;5043440;28;20145;-37
2022/09/02 08:30:08;;;;;;;18.05;4.60;;;;;;;23.81;38.37;101447.34;5042952;28;20068;-38
2022/09/02 08:32:34;;;;;;;13.65;4.65;;;;;;;23.65;39.05;101443.53;5037067;28;20022;-38
2022/09/02 08:35:01;;;;;;;12.20;4.10;;;;;;;23.34;40.06;101442.28;5031252;28;20025;-41
2022/09/02 08:37:28;;;;;;;17.92;4.93;;;;;;;23.57;39.69;101442.06;5033354;28;20052;-38
2022/09/02 08:39:53;;;;;;;13.70;4.57;;;;;;;23.95;39.77;101437.59;5033922;28;20014;-39
2022/09/02 08:42:28;;;;;;;14.63;4.75;;;;;;;23.96;39.23;101438.44;5034137;28;20128;-39
2022/09/02 08:45:04;;;;;;;12.30;4.72;;;;;;;24.06;39.47;101435.78;5036721;28;20561;-40
2022/09/02 08:47:30;;;;;;;17.77;5.50;;;;;;;23.76;39.74;101439.03;5037563;28;20543;-40
2022/09/02 08:49:59;;;;;;;14.13;5.30;;;;;;;23.77;39.90;101441.50;5037386;28;20036;-39
2022/09/02 08:52:37;;;;;;;22.88;4.57;;;;;;;24.24;39.54;101429.94;5032072;28;20091;-38
2022/09/02 08:55:05;;;;;;;9.18;4.88;;;;;;;25.16;37.11;101433.53;5017273;28;20022;-40
2022/09/02 08:57:30;;;;;;;15.90;5.07;;;;;;;25.33;36.21;101430.63;5037033;28;20155;-40
2022/09/02 08:59:57;;;;;;;11.70;4.65;;;;;;;24.98;37.37;101431.19;5041091;28;20068;-41
2022/09/02 09:02:41;;;;;;;23.30;5.18;;;;;;;24.80;38.52;101431.59;5021559;28;20021;-39
2022/09/02 09:05:10;;;;;;;10.38;4.93;;;;;;;24.45;38.66;101424.69;5043468;28;20116;-39
2022/09/02 09:07:50;;;;;;;12.00;4.93;;;;;;;24.60;38.59;101422.06;5044702;28;20030;-39
2022/09/02 09:10:18;;;;;;;16.20;5.40;;;;;;;24.15;39.04;101428.75;5045964;28;20049;-39
2022/09/02 09:12:56;;;;;;;16.85;4.80;;;;;;;23.94;39.87;101419.47;5043535;28;20029;-39
2022/09/02 09:15:48;;;;;;;16.33;5.82;;;;;;;24.84;38.33;101424.47;5044878;28;20097;-38
2022/09/02 09:18:20;;;;;;;16.02;5.72;;;;;;;24.96;38.07;101425.09;5045116;28;20029;-40
2022/09/02 09:20:45;;;;;;;12.18;4.95;;;;;;;25.43;37.62;101424.34;5044120;28;20032;-38
2022/09/02 09:23:32;;;;;;;15.85;5.07;;;;;;;26.33;36.14;101420.53;5042794;28;20026;-37
2022/09/02 09:26:11;;;;;;;18.17;5.20;;;;;;;25.85;36.84;101415.19;5040980;28;20041;-39
2022/09/02 09:28:43;;;;;;;15.43;5.43;;;;;;;25.46;37.59;101420.22;5024815;28;20026;-39
2022/09/02 09:31:16;;;;;;;13.05;5.65;;;;;;;25.17;37.44;101421.44;5041755;28;20110;-38
2022/09/02 09:34:02;;;;;;;10.57;5.35;;;;;;;25.54;38.24;101420.56;5020584;28;20030;-38
2022/09/02 09:36:50;;;;;;;13.60;5.60;;;;;;;25.76;37.15;101412.09;5040830;28;20041;-39
2022/09/02 09:39:21;;;;;;;15.98;5.10;;;;;;;26.11;36.54;101406.97;5043870;28;20030;-38
2022/09/02 09:41:47;;;;;;;21.88;5.93;;;;;;;25.87;37.40;101412.16;5040934;28;20045;-39
2022/09/02 09:44:39;;;;;;;15.90;5.88;;;;;;;25.43;38.27;101404.22;5024641;28;20029;-38
2022/09/02 09:47:07;;;;;;;10.93;5.20;;;;;;;26.09;37.28;101403.66;5038717;28;20025;-38
2022/09/02 09:49:33;;;;;;;14.98;5.78;;;;;;;26.66;35.94;101410.94;5025367;28;20022;-38
2022/09/02 09:51:59;;;;;;;12.23;4.82;;;;;;;27.31;34.32;101414.75;5042850;28;20025;-37
2022/09/02 09:54:25;;;;;;;13.77;5.85;;;;;;;26.63;34.93;101420.59;5040159;28;20155;-38
2022/09/02 09:56:51;;;;;;;22.93;5.60;;;;;;;26.16;35.88;101412.50;5039118;28;20046;-38
2022/09/02 09:59:40;;;;;;;13.30;4.80;;;;;;;26.59;35.71;101410.38;5038004;28;20037;-38
2022/09/02 10:02:31;;;;;;;13.10;5.00;;;;;;;26.33;36.11;101413.09;5036769;28;20072;-38
2022/09/02 10:05:16;;;;;;;17.13;5.28;;;;;;;26.33;35.88;101410.34;5023535;28;20041;-37
2022/09/02 10:07:43;;;;;;;17.38;5.60;;;;;;;25.74;36.65;101410.69;5023532;28;20140;-38
2022/09/02 10:10:21;;;;;;;16.45;5.72;;;;;;;25.12;38.41;101407.59;5023443;28;20034;-38
2022/09/02 10:12:48;;;;;;;12.10;5.50;;;;;;;25.04;39.40;101410.88;5030710;28;20026;-39
2022/09/02 10:15:15;;;;;;;18.27;5.55;;;;;;;24.75;39.82;101408.44;5024322;28;20028;-38
2022/09/02 10:17:52;;;;;;;15.75;4.80;;;;;;;24.93;39.46;101403.59;5024435;28;20125;-39
2022/09/02 10:20:49;;;;;;;20.67;5.07;;;;;;;24.75;39.56;101402.94;5041517;28;20030;-39
2022/09/02 10:23:33;;;;;;;11.48;5.10;;;;;;;24.80;39.30;101393.03;5044241;28;20022;-39
2022/09/02 10:26:10;;;;;;;17.25;5.32;;;;;;;24.74;40.40;101390.25;5043286;28;20664;-37
2022/09/02 10:29:13;;;;;;;17.25;5.35;;;;;;;24.56;40.63;101390.66;5040342;28;20033;-38
2022/09/02 10:31:51;;;;;;;15.98;5.35;;;;;;;24.88;40.57;101387.91;5041882;28;20492;-39
2022/09/02 10:34:31;;;;;;;;;;;;;;;25.00;40.24;101381.34;5043384;28;20084;-38
2022/09/02 10:37:17;;;;;;;21.38;6.03;;;;;;;25.25;40.52;101377.94;5042328;28;19920;-38
2022/09/02 10:39:55;;;;;;;20.10;5.70;;;;;;;25.46;38.93;101374.22;5045843;28;20030;-38
2022/09/02 10:42:45;;;;;;;12.65;5.68;;;;;;;25.31;39.69;101376.91;5030333;28;20069;-38
2022/09/02 10:45:23;;;;;;;13.52;5.97;;;;;;;25.22;40.45;101368.28;5027783;28;20026;-40
2022/09/02 10:47:52;;;;;;;;;;;;;;;25.37;40.04;101373.06;5030325;28;20114;-39
2022/09/02 10:50:25;;;;;;;15.25;6.82;;;;;;;25.28;40.22;101375.50;5047494;28;19913;-38
2022/09/02 10:53:38;;;;;;;14.25;7.05;;;;;;;25.33;40.40;101369.16;5031338;28;20021;-41
2022/09/02 10:56:20;;;;;;;16.63;6.35;;;;;;;25.67;40.08;101369.59;5005688;28;20549;-39
2022/09/02 10:58:53;;;;;;;13.73;6.72;;;;;;;25.49;40.15;101367.31;4987845;28;20200;-42
2022/09/02 11:01:24;;;;;;;14.45;5.93;;;;;;;25.66;40.76;101361.59;5022296;28;20490;-38
2022/09/02 11:04:04;;;;;;;13.13;6.80;;;;;;;25.81;40.65;101364.41;5047146;28;20065;-36
2022/09/02 11:06:34;;;;;;;23.05;7.90;;;;;;;25.92;38.82;101363.34;5050554;28;20127;-39
2022/09/02 11:09:02;;;;;;;12.88;6.30;;;;;;;26.34;38.23;101354.03;5049009;28;20034;-42
2022/09/02 11:11:43;;;;;;;11.52;6.47;;;;;;;26.78;37.96;101350.75;5031737;28;20060;-38
2022/09/02 11:14:14;;;;;;;19.85;6.97;;;;;;;26.97;37.23;101359.25;5048415;28;20034;-40
2022/09/02 11:16:52;;;;;;;19.67;7.20;;;;;;;27.42;36.94;101351.16;5048502;28;20025;-39
2022/09/02 11:19:20;;;;;;;15.70;6.50;;;;;;;28.35;35.60;101336.47;5045760;28;20038;-38
2022/09/02 11:21:59;;;;;;;14.73;6.00;;;;;;;29.05;34.22;101349.16;5048736;28;20043;-38
2022/09/02 11:24:46;;;;;;;17.65;6.43;;;;;;;29.67;32.27;101335.38;5046699;28;20168;-39
2022/09/02 11:27:38;;;;;;;17.13;5.70;;;;;;;30.19;32.01;101342.63;5047565;28;20021;-40
2022/09/02 11:30:05;;;;;;;10.50;5.43;;;;;;;30.60;30.41;101332.81;5046986;28;20025;-40
2022/09/02 11:32:33;;;;;;;14.25;5.65;;;;;;;30.79;30.51;101339.13;5047332;28;20047;-40
2022/09/02 11:35:03;;;;;;;13.85;5.30;;;;;;;30.21;30.60;101339.56;5037435;28;20043;-38
2022/09/02 11:37:31;;;;;;;9.18;4.70;;;;;;;29.91;30.52;101326.97;5046327;28;20067;-38